マイアミ の空港の天気 - METARとTAF

マイアミ国際空港 ( KMIA / MIA ) - アメリカ フロリダ州マイアミ
飛行場実況気象(Metar)
観測時間08/04 14:53 EDT (08/04 18:53 UTC)
風向・風速静穏 0m/s
視程10km以上
天気現象弱い雨
全天の4割程度の雲 雲底高度 1070m
全天の8割程度の雲 雲底高度 3050m
全天を覆う雲 雲底高度 4570m
気温25℃
湿度94%
気圧1018hPa
METARKMIA 041853Z 00000KT 10SM -RA SCT035 BKN100 OVC150 25/24 A3006 RMK AO2 LTG DSNT S TSE22 SLP180 TS DSIPTD CB DSNT S P0046 T02500239
過去の天気等 Google飛行場航空写真 Wunderground天気予報

過去48時間のMETAR

飛行場予報(TAF)
発表時間: 8/04 15:33 EDT (8/04 19:33 UTC)
予報対象時間: 4日16時 EDT ~ 5日20時 EDT
風向・風速南南東 5m/s
視程10km以上
天気現象弱い雨 周辺で雷
全天の4割程度の積乱雲 雲底高度 1070m
全天の8割程度の雲 雲底高度 2740m
4日22時 EDT から
風向・風速東南東 2m/s
視程10km以上
全天の4割程度の雲 雲底高度 760m
全天の8割程度の雲 雲底高度 4570m
5日10時 EDT から
風向・風速南南東 4m/s
視程10km以上
天気現象周辺でしゅう雨
全天の4割程度の雲 雲底高度 760m
全天の8割程度の雲 雲底高度 1520m
KMIA 041933Z 0420/0524 16009KT P6SM -RA VCTS SCT035CB BKN090
FM050200 11004KT P6SM SCT025 BKN150
FM051400 15008KT P6SM VCSH SCT025 BKN050